sensor_id;sensor_type;location;lat;lon;timestamp;temperature;humidity
37984;DHT22;61733;50.882;4.376;2022-10-16T00:01:29;15.50;99.90
37984;DHT22;61733;50.882;4.376;2022-10-16T00:03:57;15.50;99.90
37984;DHT22;61733;50.882;4.376;2022-10-16T00:06:23;15.50;99.90
37984;DHT22;61733;50.882;4.376;2022-10-16T00:08:50;15.50;99.90
37984;DHT22;61733;50.882;4.376;2022-10-16T00:11:39;15.50;99.90
37984;DHT22;61733;50.882;4.376;2022-10-16T00:14:06;15.50;99.90
37984;DHT22;61733;50.882;4.376;2022-10-16T00:16:33;15.50;99.90
37984;DHT22;61733;50.882;4.376;2022-10-16T00:18:59;15.40;99.90
37984;DHT22;61733;50.882;4.376;2022-10-16T00:21:27;15.40;99.90
37984;DHT22;61733;50.882;4.376;2022-10-16T00:23:59;15.50;99.90
37984;DHT22;61733;50.882;4.376;2022-10-16T00:26:27;15.40;99.90
37984;DHT22;61733;50.882;4.376;2022-10-16T00:28:53;15.40;99.90
37984;DHT22;61733;50.882;4.376;2022-10-16T00:31:21;15.40;99.90
37984;DHT22;61733;50.882;4.376;2022-10-16T00:33:47;15.40;99.90
37984;DHT22;61733;50.882;4.376;2022-10-16T00:36:16;15.40;99.90
37984;DHT22;61733;50.882;4.376;2022-10-16T00:38:43;15.40;99.90
37984;DHT22;61733;50.882;4.376;2022-10-16T00:41:12;15.40;99.90
37984;DHT22;61733;50.882;4.376;2022-10-16T00:43:52;15.40;99.90
37984;DHT22;61733;50.882;4.376;2022-10-16T00:46:27;15.30;99.90
37984;DHT22;61733;50.882;4.376;2022-10-16T00:49:12;15.30;99.90
37984;DHT22;61733;50.882;4.376;2022-10-16T00:51:45;15.30;99.90
37984;DHT22;61733;50.882;4.376;2022-10-16T00:54:25;15.30;99.90
37984;DHT22;61733;50.882;4.376;2022-10-16T00:56:53;15.30;99.90
37984;DHT22;61733;50.882;4.376;2022-10-16T00:59:22;15.20;99.90
37984;DHT22;61733;50.882;4.376;2022-10-16T01:01:50;15.20;99.90
37984;DHT22;61733;50.882;4.376;2022-10-16T01:04:17;15.20;99.90
37984;DHT22;61733;50.882;4.376;2022-10-16T01:07:10;15.20;99.90
37984;DHT22;61733;50.882;4.376;2022-10-16T01:20:24;15.10;99.90
37984;DHT22;61733;50.882;4.376;2022-10-16T01:28:08;15.10;99.90
37984;DHT22;61733;50.882;4.376;2022-10-16T01:30:38;15.10;99.90
37984;DHT22;61733;50.882;4.376;2022-10-16T01:33:12;15.10;99.90
37984;DHT22;61733;50.882;4.376;2022-10-16T01:35:52;15.10;99.90
37984;DHT22;61733;50.882;4.376;2022-10-16T01:38:36;15.10;99.90
37984;DHT22;61733;50.882;4.376;2022-10-16T01:41:20;15.10;99.90
37984;DHT22;61733;50.882;4.376;2022-10-16T01:46:31;15.00;99.90
37984;DHT22;61733;50.882;4.376;2022-10-16T01:48:59;15.00;99.90
37984;DHT22;61733;50.882;4.376;2022-10-16T01:51:26;15.00;99.90
37984;DHT22;61733;50.882;4.376;2022-10-16T01:53:55;15.00;99.90
37984;DHT22;61733;50.882;4.376;2022-10-16T01:56:23;15.00;99.90
37984;DHT22;61733;50.882;4.376;2022-10-16T01:58:54;15.00;99.90
37984;DHT22;61733;50.882;4.376;2022-10-16T02:01:23;14.90;99.90
37984;DHT22;61733;50.882;4.376;2022-10-16T02:03:53;14.90;99.90
37984;DHT22;61733;50.882;4.376;2022-10-16T02:06:20;14.90;99.90
37984;DHT22;61733;50.882;4.376;2022-10-16T02:08:46;15.00;99.90
37984;DHT22;61733;50.882;4.376;2022-10-16T02:11:12;14.90;99.90
37984;DHT22;61733;50.882;4.376;2022-10-16T02:13:48;14.90;99.90
37984;DHT22;61733;50.882;4.376;2022-10-16T02:16:16;14.90;99.90
37984;DHT22;61733;50.882;4.376;2022-10-16T02:18:43;14.90;99.90
37984;DHT22;61733;50.882;4.376;2022-10-16T02:21:28;14.90;99.90
37984;DHT22;61733;50.882;4.376;2022-10-16T02:26:35;14.90;99.90
37984;DHT22;61733;50.882;4.376;2022-10-16T02:29:07;14.90;99.90
37984;DHT22;61733;50.882;4.376;2022-10-16T02:31:38;14.90;99.90
37984;DHT22;61733;50.882;4.376;2022-10-16T02:34:06;14.90;99.90
37984;DHT22;61733;50.882;4.376;2022-10-16T02:36:33;14.90;99.90
37984;DHT22;61733;50.882;4.376;2022-10-16T02:39:01;14.90;99.90
37984;DHT22;61733;50.882;4.376;2022-10-16T02:41:30;14.90;99.90
37984;DHT22;61733;50.882;4.376;2022-10-16T02:43:56;14.90;99.90
37984;DHT22;61733;50.882;4.376;2022-10-16T02:46:22;14.90;99.90
37984;DHT22;61733;50.882;4.376;2022-10-16T02:48:48;14.80;99.90
37984;DHT22;61733;50.882;4.376;2022-10-16T02:51:13;14.80;99.90
37984;DHT22;61733;50.882;4.376;2022-10-16T02:53:39;14.80;99.90
37984;DHT22;61733;50.882;4.376;2022-10-16T02:56:06;14.80;99.90
37984;DHT22;61733;50.882;4.376;2022-10-16T02:58:31;14.80;99.90
37984;DHT22;61733;50.882;4.376;2022-10-16T03:00:57;14.80;99.90
37984;DHT22;61733;50.882;4.376;2022-10-16T03:03:23;14.80;99.90
37984;DHT22;61733;50.882;4.376;2022-10-16T03:05:49;14.80;99.90
37984;DHT22;61733;50.882;4.376;2022-10-16T03:08:15;14.80;99.90
37984;DHT22;61733;50.882;4.376;2022-10-16T03:10:41;14.80;99.90
37984;DHT22;61733;50.882;4.376;2022-10-16T03:13:07;14.80;99.90
37984;DHT22;61733;50.882;4.376;2022-10-16T03:15:33;14.80;99.90
37984;DHT22;61733;50.882;4.376;2022-10-16T03:17:59;14.80;99.90
37984;DHT22;61733;50.882;4.376;2022-10-16T03:20:25;14.80;99.90
37984;DHT22;61733;50.882;4.376;2022-10-16T03:22:52;14.80;99.90
37984;DHT22;61733;50.882;4.376;2022-10-16T03:25:18;14.80;99.90
37984;DHT22;61733;50.882;4.376;2022-10-16T03:27:43;14.80;99.90
37984;DHT22;61733;50.882;4.376;2022-10-16T03:30:09;14.80;99.90
37984;DHT22;61733;50.882;4.376;2022-10-16T03:32:36;14.80;99.90
37984;DHT22;61733;50.882;4.376;2022-10-16T03:35:01;14.80;99.90
37984;DHT22;61733;50.882;4.376;2022-10-16T03:37:27;14.80;99.90
37984;DHT22;61733;50.882;4.376;2022-10-16T03:39:53;14.80;99.90
37984;DHT22;61733;50.882;4.376;2022-10-16T03:42:19;14.80;99.90
37984;DHT22;61733;50.882;4.376;2022-10-16T03:44:44;14.80;99.90
37984;DHT22;61733;50.882;4.376;2022-10-16T03:47:10;14.80;99.90
37984;DHT22;61733;50.882;4.376;2022-10-16T03:49:36;14.80;99.90
37984;DHT22;61733;50.882;4.376;2022-10-16T03:52:02;14.80;99.90
37984;DHT22;61733;50.882;4.376;2022-10-16T03:54:28;14.80;99.90
37984;DHT22;61733;50.882;4.376;2022-10-16T03:56:53;14.80;99.90
37984;DHT22;61733;50.882;4.376;2022-10-16T03:59:19;14.80;99.90
37984;DHT22;61733;50.882;4.376;2022-10-16T04:01:45;14.80;99.90
37984;DHT22;61733;50.882;4.376;2022-10-16T04:04:11;14.80;99.90
37984;DHT22;61733;50.882;4.376;2022-10-16T04:06:37;14.80;99.90
37984;DHT22;61733;50.882;4.376;2022-10-16T04:09:03;14.80;99.90
37984;DHT22;61733;50.882;4.376;2022-10-16T04:11:29;14.80;99.90
37984;DHT22;61733;50.882;4.376;2022-10-16T04:13:54;14.80;99.90
37984;DHT22;61733;50.882;4.376;2022-10-16T04:16:20;14.80;99.90
37984;DHT22;61733;50.882;4.376;2022-10-16T04:18:46;14.80;99.90
37984;DHT22;61733;50.882;4.376;2022-10-16T04:21:14;14.80;99.90
37984;DHT22;61733;50.882;4.376;2022-10-16T04:23:41;14.70;99.90
37984;DHT22;61733;50.882;4.376;2022-10-16T04:26:07;14.70;99.90
37984;DHT22;61733;50.882;4.376;2022-10-16T04:28:33;14.70;99.90
37984;DHT22;61733;50.882;4.376;2022-10-16T04:30:59;14.70;99.90
37984;DHT22;61733;50.882;4.376;2022-10-16T04:33:24;14.70;99.90
37984;DHT22;61733;50.882;4.376;2022-10-16T04:35:56;14.70;99.90
37984;DHT22;61733;50.882;4.376;2022-10-16T04:38:23;14.70;99.90
37984;DHT22;61733;50.882;4.376;2022-10-16T04:40:49;14.70;99.90
37984;DHT22;61733;50.882;4.376;2022-10-16T04:43:15;14.70;99.90
37984;DHT22;61733;50.882;4.376;2022-10-16T04:45:40;14.70;99.90
37984;DHT22;61733;50.882;4.376;2022-10-16T04:48:06;14.70;99.90
37984;DHT22;61733;50.882;4.376;2022-10-16T04:50:32;14.70;99.90
37984;DHT22;61733;50.882;4.376;2022-10-16T04:52:58;14.70;99.90
37984;DHT22;61733;50.882;4.376;2022-10-16T04:55:23;14.60;99.90
37984;DHT22;61733;50.882;4.376;2022-10-16T04:57:49;14.60;99.90
37984;DHT22;61733;50.882;4.376;2022-10-16T05:00:15;14.60;99.90
37984;DHT22;61733;50.882;4.376;2022-10-16T05:02:41;14.60;99.90
37984;DHT22;61733;50.882;4.376;2022-10-16T05:05:07;14.60;99.90
37984;DHT22;61733;50.882;4.376;2022-10-16T05:07:33;14.60;99.90
37984;DHT22;61733;50.882;4.376;2022-10-16T05:09:59;14.60;99.90
37984;DHT22;61733;50.882;4.376;2022-10-16T05:12:25;14.60;99.90
37984;DHT22;61733;50.882;4.376;2022-10-16T05:14:51;14.60;99.90
37984;DHT22;61733;50.882;4.376;2022-10-16T05:17:16;14.60;99.90
37984;DHT22;61733;50.882;4.376;2022-10-16T05:19:42;14.60;99.90
37984;DHT22;61733;50.882;4.376;2022-10-16T05:22:08;14.50;99.90
37984;DHT22;61733;50.882;4.376;2022-10-16T05:24:33;14.50;99.90
37984;DHT22;61733;50.882;4.376;2022-10-16T05:26:59;14.60;99.90
37984;DHT22;61733;50.882;4.376;2022-10-16T05:29:25;14.60;99.90
37984;DHT22;61733;50.882;4.376;2022-10-16T05:31:52;14.50;99.90
37984;DHT22;61733;50.882;4.376;2022-10-16T05:34:19;14.50;99.90
37984;DHT22;61733;50.882;4.376;2022-10-16T05:36:44;14.50;99.90
37984;DHT22;61733;50.882;4.376;2022-10-16T05:39:11;14.50;99.90
37984;DHT22;61733;50.882;4.376;2022-10-16T05:41:37;14.50;99.90
37984;DHT22;61733;50.882;4.376;2022-10-16T05:44:06;14.50;99.90
37984;DHT22;61733;50.882;4.376;2022-10-16T05:46:32;14.50;99.90
37984;DHT22;61733;50.882;4.376;2022-10-16T05:48:58;14.40;99.90
37984;DHT22;61733;50.882;4.376;2022-10-16T05:51:24;14.40;99.90
37984;DHT22;61733;50.882;4.376;2022-10-16T05:53:51;14.40;99.90
37984;DHT22;61733;50.882;4.376;2022-10-16T05:56:17;14.40;99.90
37984;DHT22;61733;50.882;4.376;2022-10-16T05:58:43;14.40;99.90
37984;DHT22;61733;50.882;4.376;2022-10-16T06:01:15;14.40;99.90
37984;DHT22;61733;50.882;4.376;2022-10-16T06:03:41;14.40;99.90
37984;DHT22;61733;50.882;4.376;2022-10-16T06:06:12;14.40;99.90
37984;DHT22;61733;50.882;4.376;2022-10-16T06:08:39;14.40;99.90
37984;DHT22;61733;50.882;4.376;2022-10-16T06:11:07;14.40;99.90
37984;DHT22;61733;50.882;4.376;2022-10-16T06:13:36;14.40;99.90
37984;DHT22;61733;50.882;4.376;2022-10-16T06:16:03;14.40;99.90
37984;DHT22;61733;50.882;4.376;2022-10-16T06:18:29;14.40;99.90
37984;DHT22;61733;50.882;4.376;2022-10-16T06:20:56;14.40;99.90
37984;DHT22;61733;50.882;4.376;2022-10-16T06:23:23;14.40;99.90
37984;DHT22;61733;50.882;4.376;2022-10-16T06:25:49;14.40;99.90
37984;DHT22;61733;50.882;4.376;2022-10-16T06:28:16;14.40;99.90
37984;DHT22;61733;50.882;4.376;2022-10-16T06:30:44;14.40;99.90
37984;DHT22;61733;50.882;4.376;2022-10-16T06:33:11;14.40;99.90
37984;DHT22;61733;50.882;4.376;2022-10-16T06:35:37;14.40;99.90
37984;DHT22;61733;50.882;4.376;2022-10-16T06:38:06;14.40;99.90
37984;DHT22;61733;50.882;4.376;2022-10-16T06:40:32;14.40;99.90
37984;DHT22;61733;50.882;4.376;2022-10-16T06:42:57;14.40;99.90
37984;DHT22;61733;50.882;4.376;2022-10-16T06:45:23;14.40;99.90
37984;DHT22;61733;50.882;4.376;2022-10-16T06:47:49;14.50;99.90
37984;DHT22;61733;50.882;4.376;2022-10-16T06:50:15;14.50;99.90
37984;DHT22;61733;50.882;4.376;2022-10-16T06:52:41;14.50;99.90
37984;DHT22;61733;50.882;4.376;2022-10-16T06:55:07;14.50;99.90
37984;DHT22;61733;50.882;4.376;2022-10-16T06:57:33;14.50;99.90
37984;DHT22;61733;50.882;4.376;2022-10-16T06:59:58;14.60;99.90
37984;DHT22;61733;50.882;4.376;2022-10-16T07:02:24;14.60;99.90
37984;DHT22;61733;50.882;4.376;2022-10-16T07:04:50;14.70;99.90
37984;DHT22;61733;50.882;4.376;2022-10-16T07:07:17;14.70;99.90
37984;DHT22;61733;50.882;4.376;2022-10-16T07:09:42;14.70;99.90
37984;DHT22;61733;50.882;4.376;2022-10-16T07:12:08;14.70;99.90
37984;DHT22;61733;50.882;4.376;2022-10-16T07:14:34;14.80;99.90
37984;DHT22;61733;50.882;4.376;2022-10-16T07:17:03;14.80;99.90
37984;DHT22;61733;50.882;4.376;2022-10-16T07:19:29;14.80;99.90
37984;DHT22;61733;50.882;4.376;2022-10-16T07:21:55;14.80;99.90
37984;DHT22;61733;50.882;4.376;2022-10-16T07:24:21;14.80;99.90
37984;DHT22;61733;50.882;4.376;2022-10-16T07:26:47;14.90;99.90
37984;DHT22;61733;50.882;4.376;2022-10-16T07:29:15;14.90;99.90
37984;DHT22;61733;50.882;4.376;2022-10-16T07:31:42;14.90;99.90
37984;DHT22;61733;50.882;4.376;2022-10-16T07:34:08;15.00;99.90
37984;DHT22;61733;50.882;4.376;2022-10-16T07:36:34;15.00;99.90
37984;DHT22;61733;50.882;4.376;2022-10-16T07:39:00;15.00;99.90
37984;DHT22;61733;50.882;4.376;2022-10-16T07:41:27;15.10;99.90
37984;DHT22;61733;50.882;4.376;2022-10-16T07:43:54;15.20;99.90
37984;DHT22;61733;50.882;4.376;2022-10-16T07:46:21;15.20;99.90
37984;DHT22;61733;50.882;4.376;2022-10-16T07:48:48;15.30;99.90
37984;DHT22;61733;50.882;4.376;2022-10-16T07:51:25;15.30;99.90
37984;DHT22;61733;50.882;4.376;2022-10-16T07:53:52;15.40;99.90
37984;DHT22;61733;50.882;4.376;2022-10-16T07:56:18;15.40;99.90
37984;DHT22;61733;50.882;4.376;2022-10-16T07:58:45;15.50;99.90
37984;DHT22;61733;50.882;4.376;2022-10-16T08:01:14;15.50;99.90
37984;DHT22;61733;50.882;4.376;2022-10-16T08:03:45;15.50;99.90
37984;DHT22;61733;50.882;4.376;2022-10-16T08:06:11;15.60;99.90
37984;DHT22;61733;50.882;4.376;2022-10-16T08:08:37;15.70;99.90
37984;DHT22;61733;50.882;4.376;2022-10-16T08:11:03;15.70;99.90
37984;DHT22;61733;50.882;4.376;2022-10-16T08:13:32;15.80;99.90
37984;DHT22;61733;50.882;4.376;2022-10-16T08:15:59;15.80;99.90
37984;DHT22;61733;50.882;4.376;2022-10-16T08:18:25;15.80;99.90
37984;DHT22;61733;50.882;4.376;2022-10-16T08:20:59;15.90;99.90
37984;DHT22;61733;50.882;4.376;2022-10-16T08:23:26;15.90;99.90
37984;DHT22;61733;50.882;4.376;2022-10-16T08:25:53;16.00;99.90
37984;DHT22;61733;50.882;4.376;2022-10-16T08:28:19;16.00;99.90
37984;DHT22;61733;50.882;4.376;2022-10-16T08:30:45;16.10;99.90
37984;DHT22;61733;50.882;4.376;2022-10-16T08:33:10;16.10;99.90
37984;DHT22;61733;50.882;4.376;2022-10-16T08:35:36;16.20;99.90
37984;DHT22;61733;50.882;4.376;2022-10-16T08:38:06;16.20;99.90
37984;DHT22;61733;50.882;4.376;2022-10-16T08:40:34;16.20;99.90
37984;DHT22;61733;50.882;4.376;2022-10-16T08:43:35;16.30;99.90
37984;DHT22;61733;50.882;4.376;2022-10-16T08:48:52;16.40;99.90
37984;DHT22;61733;50.882;4.376;2022-10-16T08:51:23;16.40;99.90
37984;DHT22;61733;50.882;4.376;2022-10-16T08:54:01;16.50;99.90
37984;DHT22;61733;50.882;4.376;2022-10-16T08:56:28;16.50;99.90
37984;DHT22;61733;50.882;4.376;2022-10-16T08:58:54;16.60;99.90
37984;DHT22;61733;50.882;4.376;2022-10-16T09:01:22;16.60;99.90
37984;DHT22;61733;50.882;4.376;2022-10-16T09:20:49;17.00;99.90
37984;DHT22;61733;50.882;4.376;2022-10-16T09:23:42;17.00;99.90
37984;DHT22;61733;50.882;4.376;2022-10-16T09:26:17;17.10;99.90
37984;DHT22;61733;50.882;4.376;2022-10-16T09:28:45;17.20;99.90
37984;DHT22;61733;50.882;4.376;2022-10-16T09:31:19;17.20;99.90
37984;DHT22;61733;50.882;4.376;2022-10-16T09:33:55;17.30;99.90
37984;DHT22;61733;50.882;4.376;2022-10-16T09:36:25;17.30;99.90
37984;DHT22;61733;50.882;4.376;2022-10-16T09:39:06;17.40;99.90
37984;DHT22;61733;50.882;4.376;2022-10-16T09:41:35;17.40;99.90
37984;DHT22;61733;50.882;4.376;2022-10-16T09:44:04;17.40;99.90
37984;DHT22;61733;50.882;4.376;2022-10-16T09:46:34;17.50;99.90
37984;DHT22;61733;50.882;4.376;2022-10-16T09:49:04;17.50;99.90
37984;DHT22;61733;50.882;4.376;2022-10-16T09:51:35;17.60;99.90
37984;DHT22;61733;50.882;4.376;2022-10-16T09:54:12;17.60;99.90
37984;DHT22;61733;50.882;4.376;2022-10-16T09:56:38;17.70;99.90
37984;DHT22;61733;50.882;4.376;2022-10-16T09:59:21;17.70;99.90
37984;DHT22;61733;50.882;4.376;2022-10-16T10:01:54;17.80;99.90
37984;DHT22;61733;50.882;4.376;2022-10-16T10:04:22;17.90;99.90
37984;DHT22;61733;50.882;4.376;2022-10-16T10:06:54;17.90;99.90
37984;DHT22;61733;50.882;4.376;2022-10-16T10:09:22;18.00;99.90
37984;DHT22;61733;50.882;4.376;2022-10-16T10:11:52;18.00;99.90
37984;DHT22;61733;50.882;4.376;2022-10-16T10:16:46;18.20;99.90
37984;DHT22;61733;50.882;4.376;2022-10-16T10:19:23;18.20;99.90
37984;DHT22;61733;50.882;4.376;2022-10-16T10:21:50;18.30;99.90
37984;DHT22;61733;50.882;4.376;2022-10-16T10:24:19;18.40;99.90
37984;DHT22;61733;50.882;4.376;2022-10-16T10:26:53;18.50;99.90
37984;DHT22;61733;50.882;4.376;2022-10-16T10:29:38;18.50;99.90
37984;DHT22;61733;50.882;4.376;2022-10-16T10:50:49;18.90;99.90
37984;DHT22;61733;50.882;4.376;2022-10-16T11:07:32;19.30;99.90
37984;DHT22;61733;50.882;4.376;2022-10-16T11:10:28;19.40;99.90
37984;DHT22;61733;50.882;4.376;2022-10-16T11:13:16;19.40;99.90
37984;DHT22;61733;50.882;4.376;2022-10-16T11:15:47;19.50;99.90
37984;DHT22;61733;50.882;4.376;2022-10-16T11:21:08;19.60;99.90
37984;DHT22;61733;50.882;4.376;2022-10-16T11:26:17;19.60;99.90
37984;DHT22;61733;50.882;4.376;2022-10-16T11:28:53;19.70;99.90
37984;DHT22;61733;50.882;4.376;2022-10-16T11:31:28;19.80;99.90
37984;DHT22;61733;50.882;4.376;2022-10-16T11:34:02;19.80;99.90
37984;DHT22;61733;50.882;4.376;2022-10-16T11:39:28;19.90;99.90
37984;DHT22;61733;50.882;4.376;2022-10-16T11:42:01;19.90;99.90
37984;DHT22;61733;50.882;4.376;2022-10-16T11:44:42;20.00;99.90
37984;DHT22;61733;50.882;4.376;2022-10-16T11:50:27;20.10;99.90
37984;DHT22;61733;50.882;4.376;2022-10-16T11:55:53;20.10;99.90
37984;DHT22;61733;50.882;4.376;2022-10-16T11:58:33;20.20;99.90
37984;DHT22;61733;50.882;4.376;2022-10-16T12:06:51;20.20;99.90
37984;DHT22;61733;50.882;4.376;2022-10-16T12:09:29;20.20;99.90
37984;DHT22;61733;50.882;4.376;2022-10-16T12:11:55;20.20;99.90
37984;DHT22;61733;50.882;4.376;2022-10-16T12:17:39;20.30;99.90
37984;DHT22;61733;50.882;4.376;2022-10-16T12:20:31;20.40;99.90
37984;DHT22;61733;50.882;4.376;2022-10-16T12:23:05;20.40;99.90
37984;DHT22;61733;50.882;4.376;2022-10-16T12:25:34;20.50;99.90
37984;DHT22;61733;50.882;4.376;2022-10-16T12:30:54;20.50;99.90
37984;DHT22;61733;50.882;4.376;2022-10-16T12:33:35;20.50;99.90
37984;DHT22;61733;50.882;4.376;2022-10-16T12:36:15;20.50;99.90
37984;DHT22;61733;50.882;4.376;2022-10-16T12:38:50;20.50;99.90
37984;DHT22;61733;50.882;4.376;2022-10-16T12:41:32;20.50;99.70
37984;DHT22;61733;50.882;4.376;2022-10-16T12:43:59;20.50;99.20
37984;DHT22;61733;50.882;4.376;2022-10-16T12:49:22;20.50;97.30
37984;DHT22;61733;50.882;4.376;2022-10-16T12:51:50;20.50;96.40
37984;DHT22;61733;50.882;4.376;2022-10-16T13:00:24;20.50;97.30
37984;DHT22;61733;50.882;4.376;2022-10-16T13:09:18;20.60;97.10
37984;DHT22;61733;50.882;4.376;2022-10-16T13:17:16;20.70;97.00
37984;DHT22;61733;50.882;4.376;2022-10-16T13:22:24;20.70;95.60
37984;DHT22;61733;50.882;4.376;2022-10-16T13:27:56;20.70;95.70
37984;DHT22;61733;50.882;4.376;2022-10-16T13:30:30;20.80;95.80
37984;DHT22;61733;50.882;4.376;2022-10-16T13:33:02;20.80;96.10
37984;DHT22;61733;50.882;4.376;2022-10-16T13:35:31;20.90;96.00
37984;DHT22;61733;50.882;4.376;2022-10-16T13:40:36;20.90;96.00
37984;DHT22;61733;50.882;4.376;2022-10-16T13:43:02;20.90;96.10
37984;DHT22;61733;50.882;4.376;2022-10-16T13:45:28;20.90;96.10
37984;DHT22;61733;50.882;4.376;2022-10-16T13:48:09;20.90;96.10
37984;DHT22;61733;50.882;4.376;2022-10-16T13:50:38;20.90;96.20
37984;DHT22;61733;50.882;4.376;2022-10-16T13:53:05;20.90;96.40
37984;DHT22;61733;50.882;4.376;2022-10-16T13:55:32;20.90;96.40
37984;DHT22;61733;50.882;4.376;2022-10-16T13:58:16;20.90;96.40
37984;DHT22;61733;50.882;4.376;2022-10-16T14:01:05;20.90;96.50
37984;DHT22;61733;50.882;4.376;2022-10-16T14:03:32;20.80;96.70
37984;DHT22;61733;50.882;4.376;2022-10-16T14:06:02;20.80;96.90
37984;DHT22;61733;50.882;4.376;2022-10-16T14:08:29;20.90;96.80
37984;DHT22;61733;50.882;4.376;2022-10-16T14:10:58;20.90;96.70
37984;DHT22;61733;50.882;4.376;2022-10-16T14:13:39;20.90;96.60
37984;DHT22;61733;50.882;4.376;2022-10-16T14:16:10;20.90;96.00
37984;DHT22;61733;50.882;4.376;2022-10-16T14:18:41;20.80;95.80
37984;DHT22;61733;50.882;4.376;2022-10-16T14:21:15;20.90;95.70
37984;DHT22;61733;50.882;4.376;2022-10-16T14:23:42;20.90;95.40
37984;DHT22;61733;50.882;4.376;2022-10-16T14:28:42;20.80;95.50
37984;DHT22;61733;50.882;4.376;2022-10-16T14:31:33;20.90;95.50
37984;DHT22;61733;50.882;4.376;2022-10-16T14:33:59;20.80;95.20
37984;DHT22;61733;50.882;4.376;2022-10-16T14:36:27;20.80;95.30
37984;DHT22;61733;50.882;4.376;2022-10-16T14:39:03;20.80;95.00
37984;DHT22;61733;50.882;4.376;2022-10-16T14:41:32;20.80;94.90
37984;DHT22;61733;50.882;4.376;2022-10-16T14:44:05;20.80;94.70
37984;DHT22;61733;50.882;4.376;2022-10-16T14:46:43;20.70;94.50
37984;DHT22;61733;50.882;4.376;2022-10-16T14:51:36;20.70;94.80
37984;DHT22;61733;50.882;4.376;2022-10-16T14:54:05;20.60;95.10
37984;DHT22;61733;50.882;4.376;2022-10-16T15:00:02;20.60;95.40
37984;DHT22;61733;50.882;4.376;2022-10-16T15:02:33;20.60;95.10
37984;DHT22;61733;50.882;4.376;2022-10-16T15:05:22;20.60;95.50
37984;DHT22;61733;50.882;4.376;2022-10-16T15:07:50;20.70;95.30
37984;DHT22;61733;50.882;4.376;2022-10-16T15:10:17;20.60;95.20
37984;DHT22;61733;50.882;4.376;2022-10-16T15:12:43;20.60;95.30
37984;DHT22;61733;50.882;4.376;2022-10-16T15:15:38;20.60;95.40
37984;DHT22;61733;50.882;4.376;2022-10-16T15:18:06;20.60;95.70
37984;DHT22;61733;50.882;4.376;2022-10-16T15:20:38;20.60;95.90
37984;DHT22;61733;50.882;4.376;2022-10-16T15:23:06;20.70;95.80
37984;DHT22;61733;50.882;4.376;2022-10-16T15:25:54;20.60;95.70
37984;DHT22;61733;50.882;4.376;2022-10-16T15:28:21;20.60;95.40
37984;DHT22;61733;50.882;4.376;2022-10-16T15:30:50;20.60;95.60
37984;DHT22;61733;50.882;4.376;2022-10-16T15:33:19;20.60;95.30
37984;DHT22;61733;50.882;4.376;2022-10-16T15:35:49;20.60;95.40
37984;DHT22;61733;50.882;4.376;2022-10-16T15:38:20;20.50;95.50
37984;DHT22;61733;50.882;4.376;2022-10-16T15:40:46;20.50;95.80
37984;DHT22;61733;50.882;4.376;2022-10-16T15:43:13;20.50;95.90
37984;DHT22;61733;50.882;4.376;2022-10-16T15:45:38;20.50;96.30
37984;DHT22;61733;50.882;4.376;2022-10-16T15:48:04;20.50;96.10
37984;DHT22;61733;50.882;4.376;2022-10-16T15:50:32;20.50;96.40
37984;DHT22;61733;50.882;4.376;2022-10-16T15:52:58;20.50;96.80
37984;DHT22;61733;50.882;4.376;2022-10-16T15:55:24;20.40;96.80
37984;DHT22;61733;50.882;4.376;2022-10-16T15:57:50;20.40;96.90
37984;DHT22;61733;50.882;4.376;2022-10-16T16:00:18;20.40;97.10
37984;DHT22;61733;50.882;4.376;2022-10-16T16:02:50;20.40;97.10
37984;DHT22;61733;50.882;4.376;2022-10-16T16:05:17;20.40;97.20
37984;DHT22;61733;50.882;4.376;2022-10-16T16:07:43;20.40;97.20
37984;DHT22;61733;50.882;4.376;2022-10-16T16:10:10;20.40;97.20
37984;DHT22;61733;50.882;4.376;2022-10-16T16:12:36;20.40;97.30
37984;DHT22;61733;50.882;4.376;2022-10-16T16:15:08;20.30;97.30
37984;DHT22;61733;50.882;4.376;2022-10-16T16:17:35;20.30;97.40
37984;DHT22;61733;50.882;4.376;2022-10-16T16:20:02;20.30;97.50
37984;DHT22;61733;50.882;4.376;2022-10-16T16:22:29;20.30;97.70
37984;DHT22;61733;50.882;4.376;2022-10-16T16:24:55;20.30;97.90
37984;DHT22;61733;50.882;4.376;2022-10-16T16:27:21;20.30;98.10
37984;DHT22;61733;50.882;4.376;2022-10-16T16:29:47;20.30;98.30
37984;DHT22;61733;50.882;4.376;2022-10-16T16:32:13;20.20;98.60
37984;DHT22;61733;50.882;4.376;2022-10-16T16:34:39;20.20;98.70
37984;DHT22;61733;50.882;4.376;2022-10-16T16:37:04;20.10;98.50
37984;DHT22;61733;50.882;4.376;2022-10-16T16:39:30;20.10;98.50
37984;DHT22;61733;50.882;4.376;2022-10-16T16:41:57;20.10;98.80
37984;DHT22;61733;50.882;4.376;2022-10-16T16:44:26;20.10;99.00
37984;DHT22;61733;50.882;4.376;2022-10-16T16:46:52;20.00;99.00
37984;DHT22;61733;50.882;4.376;2022-10-16T16:49:18;20.00;99.20
37984;DHT22;61733;50.882;4.376;2022-10-16T16:51:44;20.00;99.40
37984;DHT22;61733;50.882;4.376;2022-10-16T16:54:11;19.90;99.50
37984;DHT22;61733;50.882;4.376;2022-10-16T16:56:38;19.90;99.80
37984;DHT22;61733;50.882;4.376;2022-10-16T16:59:06;19.80;99.90
37984;DHT22;61733;50.882;4.376;2022-10-16T17:01:32;19.80;99.90
37984;DHT22;61733;50.882;4.376;2022-10-16T17:03:58;19.80;99.90
37984;DHT22;61733;50.882;4.376;2022-10-16T17:06:28;19.80;99.90
37984;DHT22;61733;50.882;4.376;2022-10-16T17:08:55;19.80;99.90
37984;DHT22;61733;50.882;4.376;2022-10-16T17:11:24;19.70;99.90
37984;DHT22;61733;50.882;4.376;2022-10-16T17:13:51;19.70;99.90
37984;DHT22;61733;50.882;4.376;2022-10-16T17:16:23;19.70;99.90
37984;DHT22;61733;50.882;4.376;2022-10-16T17:18:49;19.60;99.90
37984;DHT22;61733;50.882;4.376;2022-10-16T17:21:15;19.40;99.90
37984;DHT22;61733;50.882;4.376;2022-10-16T17:23:41;19.20;99.90
37984;DHT22;61733;50.882;4.376;2022-10-16T17:26:10;19.10;99.90
37984;DHT22;61733;50.882;4.376;2022-10-16T17:28:37;18.90;99.90
37984;DHT22;61733;50.882;4.376;2022-10-16T17:31:13;18.70;99.90
37984;DHT22;61733;50.882;4.376;2022-10-16T17:33:40;18.60;99.90
37984;DHT22;61733;50.882;4.376;2022-10-16T17:36:06;18.40;99.90
37984;DHT22;61733;50.882;4.376;2022-10-16T17:38:33;18.30;99.90
37984;DHT22;61733;50.882;4.376;2022-10-16T17:41:27;18.20;99.90
37984;DHT22;61733;50.882;4.376;2022-10-16T17:43:53;18.10;99.90
37984;DHT22;61733;50.882;4.376;2022-10-16T17:46:21;18.00;99.90
37984;DHT22;61733;50.882;4.376;2022-10-16T17:48:50;17.90;99.90
37984;DHT22;61733;50.882;4.376;2022-10-16T17:51:18;17.90;99.90
37984;DHT22;61733;50.882;4.376;2022-10-16T17:53:49;17.80;99.90
37984;DHT22;61733;50.882;4.376;2022-10-16T17:56:17;17.70;99.90
37984;DHT22;61733;50.882;4.376;2022-10-16T17:58:43;17.60;99.90
37984;DHT22;61733;50.882;4.376;2022-10-16T18:01:14;17.50;99.90
37984;DHT22;61733;50.882;4.376;2022-10-16T18:03:41;17.50;99.90